sensor_id;sensor_type;location;lat;lon;timestamp;temperature;humidity
13521;DHT22;6832;51.186;3.236;2023-04-01T00:00:32;17.10;61.10
13521;DHT22;6832;51.186;3.236;2023-04-01T00:03:02;17.10;61.10
13521;DHT22;6832;51.186;3.236;2023-04-01T00:05:29;17.10;61.10
13521;DHT22;6832;51.186;3.236;2023-04-01T00:07:55;17.10;61.10
13521;DHT22;6832;51.186;3.236;2023-04-01T00:10:23;17.10;61.10
13521;DHT22;6832;51.186;3.236;2023-04-01T00:12:50;17.00;61.00
13521;DHT22;6832;51.186;3.236;2023-04-01T00:15:18;17.10;61.10
13521;DHT22;6832;51.186;3.236;2023-04-01T00:17:46;17.10;61.10
13521;DHT22;6832;51.186;3.236;2023-04-01T00:20:15;17.10;61.10
13521;DHT22;6832;51.186;3.236;2023-04-01T00:22:42;17.10;61.20
13521;DHT22;6832;51.186;3.236;2023-04-01T00:25:09;17.10;61.10
13521;DHT22;6832;51.186;3.236;2023-04-01T00:27:37;17.10;61.90
13521;DHT22;6832;51.186;3.236;2023-04-01T00:30:05;17.10;61.10
13521;DHT22;6832;51.186;3.236;2023-04-01T00:32:32;17.10;61.20
13521;DHT22;6832;51.186;3.236;2023-04-01T00:34:59;17.10;61.10
13521;DHT22;6832;51.186;3.236;2023-04-01T00:37:28;17.10;61.10
13521;DHT22;6832;51.186;3.236;2023-04-01T00:39:59;17.00;61.10
13521;DHT22;6832;51.186;3.236;2023-04-01T00:42:26;17.10;61.10
13521;DHT22;6832;51.186;3.236;2023-04-01T00:44:54;17.00;61.10
13521;DHT22;6832;51.186;3.236;2023-04-01T00:47:22;17.00;61.10
13521;DHT22;6832;51.186;3.236;2023-04-01T00:49:52;17.10;61.20
13521;DHT22;6832;51.186;3.236;2023-04-01T00:52:22;17.00;61.10
13521;DHT22;6832;51.186;3.236;2023-04-01T00:54:55;17.00;61.10
13521;DHT22;6832;51.186;3.236;2023-04-01T00:57:27;17.00;61.10
13521;DHT22;6832;51.186;3.236;2023-04-01T00:59:57;17.00;61.10
13521;DHT22;6832;51.186;3.236;2023-04-01T01:02:25;17.00;61.10
13521;DHT22;6832;51.186;3.236;2023-04-01T01:04:52;17.10;61.30
13521;DHT22;6832;51.186;3.236;2023-04-01T01:07:24;17.00;61.10
13521;DHT22;6832;51.186;3.236;2023-04-01T01:10:02;17.00;61.10
13521;DHT22;6832;51.186;3.236;2023-04-01T01:12:35;17.00;61.10
13521;DHT22;6832;51.186;3.236;2023-04-01T01:15:10;17.00;61.10
13521;DHT22;6832;51.186;3.236;2023-04-01T01:17:46;17.00;61.20
13521;DHT22;6832;51.186;3.236;2023-04-01T01:23:39;17.00;61.10
13521;DHT22;6832;51.186;3.236;2023-04-01T01:26:23;17.00;61.10
13521;DHT22;6832;51.186;3.236;2023-04-01T01:29:05;16.90;61.00
13521;DHT22;6832;51.186;3.236;2023-04-01T01:31:44;17.00;61.90
13521;DHT22;6832;51.186;3.236;2023-04-01T01:34:20;16.90;61.00
13521;DHT22;6832;51.186;3.236;2023-04-01T01:36:55;16.90;61.00
13521;DHT22;6832;51.186;3.236;2023-04-01T01:39:31;16.90;61.00
13521;DHT22;6832;51.186;3.236;2023-04-01T01:42:04;16.90;61.00
13521;DHT22;6832;51.186;3.236;2023-04-01T01:44:32;16.90;61.10
13521;DHT22;6832;51.186;3.236;2023-04-01T01:47:00;16.90;61.10
13521;DHT22;6832;51.186;3.236;2023-04-01T01:49:28;16.90;61.10
13521;DHT22;6832;51.186;3.236;2023-04-01T01:51:58;16.90;61.10
13521;DHT22;6832;51.186;3.236;2023-04-01T01:54:25;16.90;61.10
13521;DHT22;6832;51.186;3.236;2023-04-01T01:56:57;16.90;61.10
13521;DHT22;6832;51.186;3.236;2023-04-01T01:59:29;16.90;61.10
13521;DHT22;6832;51.186;3.236;2023-04-01T02:01:58;16.90;61.10
13521;DHT22;6832;51.186;3.236;2023-04-01T02:04:26;16.90;61.10
13521;DHT22;6832;51.186;3.236;2023-04-01T02:06:59;16.90;61.10
13521;DHT22;6832;51.186;3.236;2023-04-01T02:09:27;16.80;61.00
13521;DHT22;6832;51.186;3.236;2023-04-01T02:11:57;16.80;61.00
13521;DHT22;6832;51.186;3.236;2023-04-01T02:14:28;16.80;61.00
13521;DHT22;6832;51.186;3.236;2023-04-01T02:16:59;16.90;61.10
13521;DHT22;6832;51.186;3.236;2023-04-01T02:19:33;16.90;61.10
13521;DHT22;6832;51.186;3.236;2023-04-01T02:22:08;16.90;61.10
13521;DHT22;6832;51.186;3.236;2023-04-01T02:24:40;16.80;61.10
13521;DHT22;6832;51.186;3.236;2023-04-01T02:27:09;16.90;61.10
13521;DHT22;6832;51.186;3.236;2023-04-01T02:29:36;16.80;61.00
13521;DHT22;6832;51.186;3.236;2023-04-01T02:32:05;16.80;61.10
13521;DHT22;6832;51.186;3.236;2023-04-01T02:34:33;16.80;61.00
13521;DHT22;6832;51.186;3.236;2023-04-01T02:37:00;16.80;61.10
13521;DHT22;6832;51.186;3.236;2023-04-01T02:39:29;16.80;61.10
13521;DHT22;6832;51.186;3.236;2023-04-01T02:41:57;16.80;61.00
13521;DHT22;6832;51.186;3.236;2023-04-01T02:44:24;16.90;61.10
13521;DHT22;6832;51.186;3.236;2023-04-01T02:46:51;16.90;61.20
13521;DHT22;6832;51.186;3.236;2023-04-01T02:49:18;16.80;61.10
13521;DHT22;6832;51.186;3.236;2023-04-01T02:51:45;16.80;61.10
13521;DHT22;6832;51.186;3.236;2023-04-01T02:54:12;16.80;61.10
13521;DHT22;6832;51.186;3.236;2023-04-01T02:56:41;16.80;61.10
13521;DHT22;6832;51.186;3.236;2023-04-01T02:59:11;16.80;61.00
13521;DHT22;6832;51.186;3.236;2023-04-01T03:01:38;16.80;61.10
13521;DHT22;6832;51.186;3.236;2023-04-01T03:04:05;16.80;61.10
13521;DHT22;6832;51.186;3.236;2023-04-01T03:06:32;16.80;61.10
13521;DHT22;6832;51.186;3.236;2023-04-01T03:08:58;16.80;61.10
13521;DHT22;6832;51.186;3.236;2023-04-01T03:11:29;16.80;61.10
13521;DHT22;6832;51.186;3.236;2023-04-01T03:13:57;16.80;61.10
13521;DHT22;6832;51.186;3.236;2023-04-01T03:16:24;16.80;61.10
13521;DHT22;6832;51.186;3.236;2023-04-01T03:18:51;16.80;61.10
13521;DHT22;6832;51.186;3.236;2023-04-01T03:21:21;16.80;61.10
13521;DHT22;6832;51.186;3.236;2023-04-01T03:23:48;16.80;61.20
13521;DHT22;6832;51.186;3.236;2023-04-01T03:26:16;16.80;61.20
13521;DHT22;6832;51.186;3.236;2023-04-01T03:28:43;16.80;61.20
13521;DHT22;6832;51.186;3.236;2023-04-01T03:31:11;16.70;61.10
13521;DHT22;6832;51.186;3.236;2023-04-01T03:33:39;16.70;61.10
13521;DHT22;6832;51.186;3.236;2023-04-01T03:36:07;16.80;61.20
13521;DHT22;6832;51.186;3.236;2023-04-01T03:38:34;16.80;61.20
13521;DHT22;6832;51.186;3.236;2023-04-01T03:41:01;16.80;61.20
13521;DHT22;6832;51.186;3.236;2023-04-01T03:43:29;16.70;61.10
13521;DHT22;6832;51.186;3.236;2023-04-01T03:45:56;16.70;61.10
13521;DHT22;6832;51.186;3.236;2023-04-01T03:48:25;16.70;61.10
13521;DHT22;6832;51.186;3.236;2023-04-01T03:50:52;16.70;61.10
13521;DHT22;6832;51.186;3.236;2023-04-01T03:53:19;16.70;61.10
13521;DHT22;6832;51.186;3.236;2023-04-01T03:55:46;16.70;61.10
13521;DHT22;6832;51.186;3.236;2023-04-01T03:58:13;16.70;61.10
13521;DHT22;6832;51.186;3.236;2023-04-01T04:00:40;16.70;61.10
13521;DHT22;6832;51.186;3.236;2023-04-01T04:03:07;16.70;61.20
13521;DHT22;6832;51.186;3.236;2023-04-01T04:05:36;16.70;61.10
13521;DHT22;6832;51.186;3.236;2023-04-01T04:08:03;16.70;61.20
13521;DHT22;6832;51.186;3.236;2023-04-01T04:10:29;16.70;61.20
13521;DHT22;6832;51.186;3.236;2023-04-01T04:12:56;16.70;61.20
13521;DHT22;6832;51.186;3.236;2023-04-01T04:15:24;16.90;61.40
13521;DHT22;6832;51.186;3.236;2023-04-01T04:17:51;16.70;61.20
13521;DHT22;6832;51.186;3.236;2023-04-01T04:20:18;16.70;61.20
13521;DHT22;6832;51.186;3.236;2023-04-01T04:22:47;16.70;61.30
13521;DHT22;6832;51.186;3.236;2023-04-01T04:25:14;16.70;61.20
13521;DHT22;6832;51.186;3.236;2023-04-01T04:27:41;16.70;61.20
13521;DHT22;6832;51.186;3.236;2023-04-01T04:30:09;16.70;61.30
13521;DHT22;6832;51.186;3.236;2023-04-01T04:32:36;16.70;61.20
13521;DHT22;6832;51.186;3.236;2023-04-01T04:35:04;16.80;61.40
13521;DHT22;6832;51.186;3.236;2023-04-01T04:37:32;16.70;61.30
13521;DHT22;6832;51.186;3.236;2023-04-01T04:40:00;16.70;61.30
13521;DHT22;6832;51.186;3.236;2023-04-01T04:42:27;16.70;62.10
13521;DHT22;6832;51.186;3.236;2023-04-01T04:44:54;16.70;62.10
13521;DHT22;6832;51.186;3.236;2023-04-01T04:47:21;16.70;61.20
13521;DHT22;6832;51.186;3.236;2023-04-01T04:49:48;16.70;61.30
13521;DHT22;6832;51.186;3.236;2023-04-01T04:52:15;16.70;61.30
13521;DHT22;6832;51.186;3.236;2023-04-01T04:54:42;16.70;61.30
13521;DHT22;6832;51.186;3.236;2023-04-01T04:57:10;16.70;61.30
13521;DHT22;6832;51.186;3.236;2023-04-01T04:59:37;16.70;61.30
13521;DHT22;6832;51.186;3.236;2023-04-01T05:02:04;16.70;61.40
13521;DHT22;6832;51.186;3.236;2023-04-01T05:04:34;16.70;61.40
13521;DHT22;6832;51.186;3.236;2023-04-01T05:07:02;16.70;61.40
13521;DHT22;6832;51.186;3.236;2023-04-01T05:09:29;16.70;61.40
13521;DHT22;6832;51.186;3.236;2023-04-01T05:11:57;16.70;61.40
13521;DHT22;6832;51.186;3.236;2023-04-01T05:14:26;16.70;61.40
13521;DHT22;6832;51.186;3.236;2023-04-01T05:16:53;16.70;61.40
13521;DHT22;6832;51.186;3.236;2023-04-01T05:19:20;16.70;61.40
13521;DHT22;6832;51.186;3.236;2023-04-01T05:21:47;16.70;61.40
13521;DHT22;6832;51.186;3.236;2023-04-01T05:24:14;16.70;61.40
13521;DHT22;6832;51.186;3.236;2023-04-01T05:26:42;16.70;61.40
13521;DHT22;6832;51.186;3.236;2023-04-01T05:29:10;16.70;61.30
13521;DHT22;6832;51.186;3.236;2023-04-01T05:31:38;16.70;61.40
13521;DHT22;6832;51.186;3.236;2023-04-01T05:34:05;16.70;61.40
13521;DHT22;6832;51.186;3.236;2023-04-01T05:36:32;16.70;61.40
13521;DHT22;6832;51.186;3.236;2023-04-01T05:38:59;16.70;61.70
13521;DHT22;6832;51.186;3.236;2023-04-01T05:41:26;16.70;61.40
13521;DHT22;6832;51.186;3.236;2023-04-01T05:43:53;16.70;61.40
13521;DHT22;6832;51.186;3.236;2023-04-01T05:46:20;16.70;61.40
13521;DHT22;6832;51.186;3.236;2023-04-01T05:48:49;16.70;61.30
13521;DHT22;6832;51.186;3.236;2023-04-01T05:51:16;16.70;61.40
13521;DHT22;6832;51.186;3.236;2023-04-01T05:53:43;16.70;61.30
13521;DHT22;6832;51.186;3.236;2023-04-01T05:56:10;16.70;61.40
13521;DHT22;6832;51.186;3.236;2023-04-01T05:58:37;16.70;61.30
13521;DHT22;6832;51.186;3.236;2023-04-01T06:01:06;16.70;61.30
13521;DHT22;6832;51.186;3.236;2023-04-01T06:03:36;16.70;61.40
13521;DHT22;6832;51.186;3.236;2023-04-01T06:06:08;16.70;61.40
13521;DHT22;6832;51.186;3.236;2023-04-01T06:08:41;16.70;61.40
13521;DHT22;6832;51.186;3.236;2023-04-01T06:11:18;16.70;61.40
13521;DHT22;6832;51.186;3.236;2023-04-01T06:13:59;16.70;61.40
13521;DHT22;6832;51.186;3.236;2023-04-01T06:16:39;16.70;61.40
13521;DHT22;6832;51.186;3.236;2023-04-01T06:19:22;16.70;61.40
13521;DHT22;6832;51.186;3.236;2023-04-01T06:22:13;16.70;61.40
13521;DHT22;6832;51.186;3.236;2023-04-01T06:24:54;16.70;61.40
13521;DHT22;6832;51.186;3.236;2023-04-01T06:27:41;16.70;61.30
13521;DHT22;6832;51.186;3.236;2023-04-01T06:30:29;16.70;61.40
13521;DHT22;6832;51.186;3.236;2023-04-01T06:33:09;16.70;61.40
13521;DHT22;6832;51.186;3.236;2023-04-01T06:36:10;16.70;61.30
13521;DHT22;6832;51.186;3.236;2023-04-01T06:39:06;16.70;61.30
13521;DHT22;6832;51.186;3.236;2023-04-01T06:42:05;16.70;61.40
13521;DHT22;6832;51.186;3.236;2023-04-01T06:44:41;16.70;61.30
13521;DHT22;6832;51.186;3.236;2023-04-01T06:47:23;16.70;61.40
13521;DHT22;6832;51.186;3.236;2023-04-01T06:50:02;16.70;61.40
13521;DHT22;6832;51.186;3.236;2023-04-01T06:52:40;16.70;62.20
13521;DHT22;6832;51.186;3.236;2023-04-01T06:55:26;16.70;61.40
13521;DHT22;6832;51.186;3.236;2023-04-01T06:57:55;16.60;61.30
13521;DHT22;6832;51.186;3.236;2023-04-01T07:00:29;16.70;61.30
13521;DHT22;6832;51.186;3.236;2023-04-01T07:03:04;16.70;61.30
13521;DHT22;6832;51.186;3.236;2023-04-01T07:05:33;16.70;61.40
13521;DHT22;6832;51.186;3.236;2023-04-01T07:08:03;16.70;61.40
13521;DHT22;6832;51.186;3.236;2023-04-01T07:10:35;16.70;61.40
13521;DHT22;6832;51.186;3.236;2023-04-01T07:13:13;16.70;61.40
13521;DHT22;6832;51.186;3.236;2023-04-01T07:15:43;16.70;61.40
13521;DHT22;6832;51.186;3.236;2023-04-01T07:18:15;16.70;61.40
13521;DHT22;6832;51.186;3.236;2023-04-01T07:20:44;16.60;61.30
13521;DHT22;6832;51.186;3.236;2023-04-01T07:23:16;16.60;61.30
13521;DHT22;6832;51.186;3.236;2023-04-01T07:25:52;16.60;61.30
13521;DHT22;6832;51.186;3.236;2023-04-01T07:28:20;16.70;61.40
13521;DHT22;6832;51.186;3.236;2023-04-01T07:30:52;16.60;61.30
13521;DHT22;6832;51.186;3.236;2023-04-01T07:33:30;16.70;61.40
13521;DHT22;6832;51.186;3.236;2023-04-01T07:36:05;16.70;61.40
13521;DHT22;6832;51.186;3.236;2023-04-01T07:38:40;16.60;61.40
13521;DHT22;6832;51.186;3.236;2023-04-01T07:41:18;16.60;62.10
13521;DHT22;6832;51.186;3.236;2023-04-01T07:44:00;16.70;61.40
13521;DHT22;6832;51.186;3.236;2023-04-01T07:46:48;16.60;61.30
13521;DHT22;6832;51.186;3.236;2023-04-01T07:49:19;16.60;61.30
13521;DHT22;6832;51.186;3.236;2023-04-01T07:51:58;16.60;61.30
13521;DHT22;6832;51.186;3.236;2023-04-01T07:54:34;16.60;61.30
13521;DHT22;6832;51.186;3.236;2023-04-01T07:57:08;16.70;61.40
13521;DHT22;6832;51.186;3.236;2023-04-01T07:59:45;16.60;61.30
13521;DHT22;6832;51.186;3.236;2023-04-01T08:02:26;16.60;61.40
13521;DHT22;6832;51.186;3.236;2023-04-01T08:05:03;16.60;61.40
13521;DHT22;6832;51.186;3.236;2023-04-01T08:07:37;16.60;61.40
13521;DHT22;6832;51.186;3.236;2023-04-01T08:10:11;16.60;61.40
13521;DHT22;6832;51.186;3.236;2023-04-01T08:12:59;16.60;61.40
13521;DHT22;6832;51.186;3.236;2023-04-01T08:15:33;16.60;61.40
13521;DHT22;6832;51.186;3.236;2023-04-01T08:18:12;16.60;62.20
13521;DHT22;6832;51.186;3.236;2023-04-01T08:20:44;16.60;61.50
13521;DHT22;6832;51.186;3.236;2023-04-01T08:23:15;16.70;61.50
13521;DHT22;6832;51.186;3.236;2023-04-01T08:25:48;16.60;61.50
13521;DHT22;6832;51.186;3.236;2023-04-01T08:28:22;16.60;61.50
13521;DHT22;6832;51.186;3.236;2023-04-01T08:30:53;16.60;61.50
13521;DHT22;6832;51.186;3.236;2023-04-01T08:33:25;16.60;61.50
13521;DHT22;6832;51.186;3.236;2023-04-01T08:35:56;16.60;61.50
13521;DHT22;6832;51.186;3.236;2023-04-01T08:38:28;16.60;61.50
13521;DHT22;6832;51.186;3.236;2023-04-01T08:41:00;16.60;61.50
13521;DHT22;6832;51.186;3.236;2023-04-01T08:43:53;16.60;61.50
13521;DHT22;6832;51.186;3.236;2023-04-01T08:46:53;16.60;61.60
13521;DHT22;6832;51.186;3.236;2023-04-01T08:49:46;16.60;61.60
13521;DHT22;6832;51.186;3.236;2023-04-01T08:52:29;16.60;61.60
13521;DHT22;6832;51.186;3.236;2023-04-01T08:55:18;16.60;61.60
13521;DHT22;6832;51.186;3.236;2023-04-01T08:57:55;16.60;61.60
13521;DHT22;6832;51.186;3.236;2023-04-01T09:00:30;16.50;61.50
13521;DHT22;6832;51.186;3.236;2023-04-01T09:03:25;16.60;61.60
13521;DHT22;6832;51.186;3.236;2023-04-01T09:06:28;16.60;61.60
13521;DHT22;6832;51.186;3.236;2023-04-01T09:12:23;16.60;61.60
13521;DHT22;6832;51.186;3.236;2023-04-01T09:15:01;16.60;61.60
13521;DHT22;6832;51.186;3.236;2023-04-01T09:18:01;16.60;61.60
13521;DHT22;6832;51.186;3.236;2023-04-01T09:20:56;16.60;61.70
13521;DHT22;6832;51.186;3.236;2023-04-01T09:23:38;16.60;61.70
13521;DHT22;6832;51.186;3.236;2023-04-01T09:26:25;16.60;61.70
13521;DHT22;6832;51.186;3.236;2023-04-01T09:29:02;16.60;61.70
13521;DHT22;6832;51.186;3.236;2023-04-01T09:31:55;16.60;61.70
13521;DHT22;6832;51.186;3.236;2023-04-01T09:34:54;16.60;61.70
13521;DHT22;6832;51.186;3.236;2023-04-01T09:40:16;16.60;61.70
13521;DHT22;6832;51.186;3.236;2023-04-01T09:42:49;16.60;61.70
13521;DHT22;6832;51.186;3.236;2023-04-01T09:45:35;16.60;61.70
13521;DHT22;6832;51.186;3.236;2023-04-01T09:51:17;16.60;61.80
13521;DHT22;6832;51.186;3.236;2023-04-01T09:53:57;16.60;61.80
13521;DHT22;6832;51.186;3.236;2023-04-01T09:57:02;16.60;61.80
13521;DHT22;6832;51.186;3.236;2023-04-01T10:00:06;16.60;61.80
13521;DHT22;6832;51.186;3.236;2023-04-01T10:02:59;16.60;61.90
13521;DHT22;6832;51.186;3.236;2023-04-01T10:05:51;16.60;61.80
13521;DHT22;6832;51.186;3.236;2023-04-01T10:12:06;16.60;61.90
13521;DHT22;6832;51.186;3.236;2023-04-01T10:18:09;16.60;61.90
13521;DHT22;6832;51.186;3.236;2023-04-01T10:20:51;16.60;62.00
13521;DHT22;6832;51.186;3.236;2023-04-01T10:26:36;16.60;62.00
13521;DHT22;6832;51.186;3.236;2023-04-01T10:29:48;16.60;62.00
13521;DHT22;6832;51.186;3.236;2023-04-01T10:39:10;16.60;62.10
13521;DHT22;6832;51.186;3.236;2023-04-01T10:42:18;16.60;62.10
13521;DHT22;6832;51.186;3.236;2023-04-01T10:45:19;16.60;62.10
13521;DHT22;6832;51.186;3.236;2023-04-01T10:48:12;16.60;62.10
13521;DHT22;6832;51.186;3.236;2023-04-01T10:54:15;16.60;62.10
13521;DHT22;6832;51.186;3.236;2023-04-01T10:56:57;16.60;62.10
13521;DHT22;6832;51.186;3.236;2023-04-01T10:59:58;16.60;62.10
13521;DHT22;6832;51.186;3.236;2023-04-01T11:03:08;16.70;62.20
13521;DHT22;6832;51.186;3.236;2023-04-01T11:12:05;16.60;62.10
13521;DHT22;6832;51.186;3.236;2023-04-01T11:24:05;16.70;62.20
13521;DHT22;6832;51.186;3.236;2023-04-01T11:26:43;16.60;62.10
13521;DHT22;6832;51.186;3.236;2023-04-01T11:32:46;16.70;62.20
13521;DHT22;6832;51.186;3.236;2023-04-01T11:35:32;16.60;62.10
13521;DHT22;6832;51.186;3.236;2023-04-01T11:38:12;16.60;62.10
13521;DHT22;6832;51.186;3.236;2023-04-01T11:40:47;16.70;62.20
13521;DHT22;6832;51.186;3.236;2023-04-01T11:43:22;16.60;62.10
13521;DHT22;6832;51.186;3.236;2023-04-01T11:46:10;16.70;62.20
13521;DHT22;6832;51.186;3.236;2023-04-01T11:49:02;16.60;62.10
13521;DHT22;6832;51.186;3.236;2023-04-01T11:51:46;16.70;62.20
13521;DHT22;6832;51.186;3.236;2023-04-01T11:54:33;16.70;62.20
13521;DHT22;6832;51.186;3.236;2023-04-01T11:57:42;16.70;62.20
13521;DHT22;6832;51.186;3.236;2023-04-01T12:00:26;16.70;62.20
13521;DHT22;6832;51.186;3.236;2023-04-01T12:05:56;16.70;62.20
13521;DHT22;6832;51.186;3.236;2023-04-01T12:08:35;16.70;62.20
13521;DHT22;6832;51.186;3.236;2023-04-01T12:11:11;16.70;62.20
13521;DHT22;6832;51.186;3.236;2023-04-01T12:13:48;16.70;62.20
13521;DHT22;6832;51.186;3.236;2023-04-01T12:16:37;16.70;62.20
13521;DHT22;6832;51.186;3.236;2023-04-01T12:19:15;16.70;62.20
13521;DHT22;6832;51.186;3.236;2023-04-01T12:21:52;16.70;62.20
13521;DHT22;6832;51.186;3.236;2023-04-01T12:24:33;16.70;62.20
13521;DHT22;6832;51.186;3.236;2023-04-01T12:27:15;16.70;62.20
13521;DHT22;6832;51.186;3.236;2023-04-01T12:32:45;16.60;62.10
13521;DHT22;6832;51.186;3.236;2023-04-01T12:35:19;16.70;62.20
13521;DHT22;6832;51.186;3.236;2023-04-01T12:37:58;16.70;62.20
13521;DHT22;6832;51.186;3.236;2023-04-01T12:40:40;16.70;62.20
13521;DHT22;6832;51.186;3.236;2023-04-01T12:46:50;16.70;62.20
13521;DHT22;6832;51.186;3.236;2023-04-01T12:49:49;16.70;62.60
13521;DHT22;6832;51.186;3.236;2023-04-01T12:52:19;16.70;63.00
13521;DHT22;6832;51.186;3.236;2023-04-01T12:55:23;16.70;62.20
13521;DHT22;6832;51.186;3.236;2023-04-01T12:58:10;16.70;62.20
13521;DHT22;6832;51.186;3.236;2023-04-01T13:00:54;16.70;62.20
13521;DHT22;6832;51.186;3.236;2023-04-01T13:03:44;16.70;62.20
13521;DHT22;6832;51.186;3.236;2023-04-01T13:06:42;16.70;62.20
13521;DHT22;6832;51.186;3.236;2023-04-01T13:09:23;16.70;62.20
13521;DHT22;6832;51.186;3.236;2023-04-01T13:12:03;16.70;62.20
13521;DHT22;6832;51.186;3.236;2023-04-01T13:14:56;16.70;62.20
13521;DHT22;6832;51.186;3.236;2023-04-01T13:17:29;16.70;62.20
13521;DHT22;6832;51.186;3.236;2023-04-01T13:20:03;16.70;62.20
13521;DHT22;6832;51.186;3.236;2023-04-01T13:22:49;16.70;62.20
13521;DHT22;6832;51.186;3.236;2023-04-01T13:25:24;16.70;62.20
13521;DHT22;6832;51.186;3.236;2023-04-01T13:28:00;16.70;62.20
13521;DHT22;6832;51.186;3.236;2023-04-01T13:30:34;16.70;62.20
13521;DHT22;6832;51.186;3.236;2023-04-01T13:33:12;16.70;62.20
13521;DHT22;6832;51.186;3.236;2023-04-01T13:35:46;16.70;62.20
13521;DHT22;6832;51.186;3.236;2023-04-01T13:41:15;16.60;62.10
13521;DHT22;6832;51.186;3.236;2023-04-01T13:43:51;16.70;62.20
13521;DHT22;6832;51.186;3.236;2023-04-01T13:47:08;16.70;62.20
13521;DHT22;6832;51.186;3.236;2023-04-01T13:49:53;16.60;62.20
13521;DHT22;6832;51.186;3.236;2023-04-01T13:52:56;16.70;62.20
13521;DHT22;6832;51.186;3.236;2023-04-01T13:55:49;16.70;62.20
13521;DHT22;6832;51.186;3.236;2023-04-01T13:58:29;16.70;62.20
13521;DHT22;6832;51.186;3.236;2023-04-01T14:01:06;16.70;62.20
13521;DHT22;6832;51.186;3.236;2023-04-01T14:03:47;16.70;62.20
13521;DHT22;6832;51.186;3.236;2023-04-01T14:06:23;16.70;62.30
13521;DHT22;6832;51.186;3.236;2023-04-01T14:12:29;16.70;62.20
13521;DHT22;6832;51.186;3.236;2023-04-01T14:15:37;16.70;62.30
13521;DHT22;6832;51.186;3.236;2023-04-01T14:18:20;16.70;62.20
13521;DHT22;6832;51.186;3.236;2023-04-01T14:20:57;16.70;62.20
13521;DHT22;6832;51.186;3.236;2023-04-01T14:23:42;16.70;62.20
13521;DHT22;6832;51.186;3.236;2023-04-01T14:26:50;16.70;62.20
13521;DHT22;6832;51.186;3.236;2023-04-01T14:29:27;16.70;62.20
13521;DHT22;6832;51.186;3.236;2023-04-01T14:32:10;16.70;62.20
13521;DHT22;6832;51.186;3.236;2023-04-01T14:34:59;16.70;62.20
13521;DHT22;6832;51.186;3.236;2023-04-01T14:37:47;16.70;62.20
13521;DHT22;6832;51.186;3.236;2023-04-01T14:40:27;16.70;62.20
13521;DHT22;6832;51.186;3.236;2023-04-01T14:43:23;16.70;62.20
13521;DHT22;6832;51.186;3.236;2023-04-01T14:48:59;16.70;62.20
13521;DHT22;6832;51.186;3.236;2023-04-01T14:51:33;16.70;62.20
13521;DHT22;6832;51.186;3.236;2023-04-01T14:54:06;16.70;62.20
13521;DHT22;6832;51.186;3.236;2023-04-01T14:56:39;16.60;62.10
13521;DHT22;6832;51.186;3.236;2023-04-01T14:59:10;16.70;62.20
13521;DHT22;6832;51.186;3.236;2023-04-01T15:01:47;16.70;62.90
13521;DHT22;6832;51.186;3.236;2023-04-01T15:10:56;16.60;62.10
13521;DHT22;6832;51.186;3.236;2023-04-01T15:16:39;16.70;62.20
13521;DHT22;6832;51.186;3.236;2023-04-01T15:19:16;16.60;62.10
13521;DHT22;6832;51.186;3.236;2023-04-01T15:22:07;16.70;62.20
13521;DHT22;6832;51.186;3.236;2023-04-01T15:25:00;16.70;62.20
13521;DHT22;6832;51.186;3.236;2023-04-01T15:27:36;16.60;62.10
13521;DHT22;6832;51.186;3.236;2023-04-01T15:30:33;16.60;62.90
13521;DHT22;6832;51.186;3.236;2023-04-01T15:33:28;16.70;62.20
13521;DHT22;6832;51.186;3.236;2023-04-01T15:36:07;16.60;62.10
13521;DHT22;6832;51.186;3.236;2023-04-01T15:38:46;16.60;62.10
13521;DHT22;6832;51.186;3.236;2023-04-01T15:41:23;16.60;62.10
13521;DHT22;6832;51.186;3.236;2023-04-01T15:43:52;16.60;62.10
13521;DHT22;6832;51.186;3.236;2023-04-01T15:49:36;16.60;62.10
13521;DHT22;6832;51.186;3.236;2023-04-01T15:52:16;16.60;62.10
13521;DHT22;6832;51.186;3.236;2023-04-01T15:55:09;16.60;62.10
13521;DHT22;6832;51.186;3.236;2023-04-01T15:57:45;16.60;62.10
13521;DHT22;6832;51.186;3.236;2023-04-01T16:00:28;16.60;62.10
13521;DHT22;6832;51.186;3.236;2023-04-01T16:03:14;16.70;62.20
13521;DHT22;6832;51.186;3.236;2023-04-01T16:06:06;16.60;62.10
13521;DHT22;6832;51.186;3.236;2023-04-01T16:08:59;16.60;62.10
13521;DHT22;6832;51.186;3.236;2023-04-01T16:11:36;16.60;62.10
13521;DHT22;6832;51.186;3.236;2023-04-01T16:14:14;16.60;62.10
13521;DHT22;6832;51.186;3.236;2023-04-01T16:17:15;16.70;62.20
13521;DHT22;6832;51.186;3.236;2023-04-01T16:19:51;16.60;62.10
13521;DHT22;6832;51.186;3.236;2023-04-01T16:22:25;16.60;62.10
13521;DHT22;6832;51.186;3.236;2023-04-01T16:25:17;16.60;62.10
13521;DHT22;6832;51.186;3.236;2023-04-01T16:27:53;16.60;62.10
13521;DHT22;6832;51.186;3.236;2023-04-01T16:30:35;16.60;62.10
13521;DHT22;6832;51.186;3.236;2023-04-01T16:33:04;16.60;62.10
13521;DHT22;6832;51.186;3.236;2023-04-01T16:35:41;16.60;62.10
13521;DHT22;6832;51.186;3.236;2023-04-01T16:38:26;16.50;62.00
13521;DHT22;6832;51.186;3.236;2023-04-01T16:41:10;16.60;62.10
13521;DHT22;6832;51.186;3.236;2023-04-01T16:43:42;16.50;62.00
13521;DHT22;6832;51.186;3.236;2023-04-01T16:46:26;16.60;62.10
13521;DHT22;6832;51.186;3.236;2023-04-01T16:49:23;16.70;62.20
13521;DHT22;6832;51.186;3.236;2023-04-01T16:51:53;16.60;62.10
13521;DHT22;6832;51.186;3.236;2023-04-01T16:57:25;16.60;62.10
13521;DHT22;6832;51.186;3.236;2023-04-01T16:59:57;16.60;62.10
13521;DHT22;6832;51.186;3.236;2023-04-01T17:02:30;16.60;62.90
13521;DHT22;6832;51.186;3.236;2023-04-01T17:05:08;16.50;62.00
13521;DHT22;6832;51.186;3.236;2023-04-01T17:07:46;16.50;62.00
13521;DHT22;6832;51.186;3.236;2023-04-01T17:10:33;16.60;62.10
13521;DHT22;6832;51.186;3.236;2023-04-01T17:13:16;16.50;62.00
13521;DHT22;6832;51.186;3.236;2023-04-01T17:15:54;16.50;62.00
13521;DHT22;6832;51.186;3.236;2023-04-01T17:21:26;16.60;62.10
13521;DHT22;6832;51.186;3.236;2023-04-01T17:24:02;16.70;62.20
13521;DHT22;6832;51.186;3.236;2023-04-01T17:26:37;16.50;62.00
13521;DHT22;6832;51.186;3.236;2023-04-01T17:29:14;16.50;62.00
13521;DHT22;6832;51.186;3.236;2023-04-01T17:31:46;16.50;62.00
13521;DHT22;6832;51.186;3.236;2023-04-01T17:34:35;16.50;62.00
13521;DHT22;6832;51.186;3.236;2023-04-01T17:40:20;16.50;62.00
13521;DHT22;6832;51.186;3.236;2023-04-01T17:42:55;16.60;62.10
13521;DHT22;6832;51.186;3.236;2023-04-01T17:45:29;16.50;62.00
13521;DHT22;6832;51.186;3.236;2023-04-01T17:48:02;16.50;62.00
13521;DHT22;6832;51.186;3.236;2023-04-01T17:50:53;16.50;62.00
13521;DHT22;6832;51.186;3.236;2023-04-01T17:53:35;16.50;62.00
13521;DHT22;6832;51.186;3.236;2023-04-01T17:56:21;16.50;62.00
13521;DHT22;6832;51.186;3.236;2023-04-01T17:58:59;16.50;62.00
13521;DHT22;6832;51.186;3.236;2023-04-01T18:01:42;16.50;62.00
13521;DHT22;6832;51.186;3.236;2023-04-01T18:04:30;16.50;62.00
13521;DHT22;6832;51.186;3.236;2023-04-01T18:07:27;16.50;62.00
13521;DHT22;6832;51.186;3.236;2023-04-01T18:10:06;16.50;62.00
13521;DHT22;6832;51.186;3.236;2023-04-01T18:12:44;16.50;62.00
13521;DHT22;6832;51.186;3.236;2023-04-01T18:15:27;16.50;62.00
13521;DHT22;6832;51.186;3.236;2023-04-01T18:18:11;16.50;62.00